sensor_id;sensor_type;location;lat;lon;timestamp;P1;durP1;ratioP1;P2;durP2;ratioP2
35959;SDS011;22043;50.970;7.192;2024-01-15T00:01:59;21.58;;;8.23;;
35959;SDS011;22043;50.970;7.192;2024-01-15T00:04:24;21.23;;;9.20;;
35959;SDS011;22043;50.970;7.192;2024-01-15T00:06:49;22.60;;;9.05;;
35959;SDS011;22043;50.970;7.192;2024-01-15T00:09:15;22.15;;;8.15;;
35959;SDS011;22043;50.970;7.192;2024-01-15T00:11:41;17.85;;;7.68;;
35959;SDS011;22043;50.970;7.192;2024-01-15T00:14:07;18.73;;;7.57;;
35959;SDS011;22043;50.970;7.192;2024-01-15T00:16:33;22.20;;;8.18;;
35959;SDS011;22043;50.970;7.192;2024-01-15T00:18:59;23.20;;;8.85;;
35959;SDS011;22043;50.970;7.192;2024-01-15T00:21:24;23.80;;;9.10;;
35959;SDS011;22043;50.970;7.192;2024-01-15T00:23:49;20.30;;;8.73;;
35959;SDS011;22043;50.970;7.192;2024-01-15T00:26:15;23.88;;;9.65;;
35959;SDS011;22043;50.970;7.192;2024-01-15T00:28:40;26.08;;;10.40;;
35959;SDS011;22043;50.970;7.192;2024-01-15T00:31:06;26.17;;;8.85;;
35959;SDS011;22043;50.970;7.192;2024-01-15T00:33:31;23.77;;;9.55;;
35959;SDS011;22043;50.970;7.192;2024-01-15T00:35:57;21.35;;;8.77;;
35959;SDS011;22043;50.970;7.192;2024-01-15T00:38:22;21.70;;;8.82;;
35959;SDS011;22043;50.970;7.192;2024-01-15T00:40:48;26.23;;;9.40;;
35959;SDS011;22043;50.970;7.192;2024-01-15T00:43:13;27.27;;;8.65;;
35959;SDS011;22043;50.970;7.192;2024-01-15T00:45:39;22.35;;;9.32;;
35959;SDS011;22043;50.970;7.192;2024-01-15T00:48:04;23.50;;;9.57;;
35959;SDS011;22043;50.970;7.192;2024-01-15T00:50:30;20.35;;;9.18;;
35959;SDS011;22043;50.970;7.192;2024-01-15T00:52:55;24.67;;;9.00;;
35959;SDS011;22043;50.970;7.192;2024-01-15T00:55:21;26.10;;;8.63;;
35959;SDS011;22043;50.970;7.192;2024-01-15T00:57:46;28.02;;;10.05;;
35959;SDS011;22043;50.970;7.192;2024-01-15T01:00:12;20.00;;;8.55;;
35959;SDS011;22043;50.970;7.192;2024-01-15T01:02:38;24.60;;;9.95;;
35959;SDS011;22043;50.970;7.192;2024-01-15T01:05:03;23.65;;;9.73;;
35959;SDS011;22043;50.970;7.192;2024-01-15T01:07:29;26.42;;;9.35;;
35959;SDS011;22043;50.970;7.192;2024-01-15T01:09:54;28.00;;;10.40;;
35959;SDS011;22043;50.970;7.192;2024-01-15T01:12:20;24.63;;;9.55;;
35959;SDS011;22043;50.970;7.192;2024-01-15T01:14:45;23.98;;;9.70;;
35959;SDS011;22043;50.970;7.192;2024-01-15T01:17:11;24.70;;;10.43;;
35959;SDS011;22043;50.970;7.192;2024-01-15T01:19:36;21.90;;;8.45;;
35959;SDS011;22043;50.970;7.192;2024-01-15T01:22:01;24.63;;;9.50;;
35959;SDS011;22043;50.970;7.192;2024-01-15T01:24:27;22.70;;;9.85;;
35959;SDS011;22043;50.970;7.192;2024-01-15T01:26:53;26.50;;;10.02;;
35959;SDS011;22043;50.970;7.192;2024-01-15T01:29:18;27.42;;;10.35;;
35959;SDS011;22043;50.970;7.192;2024-01-15T01:31:44;23.00;;;9.35;;
35959;SDS011;22043;50.970;7.192;2024-01-15T01:34:10;24.63;;;9.98;;
35959;SDS011;22043;50.970;7.192;2024-01-15T01:36:35;26.27;;;10.43;;
35959;SDS011;22043;50.970;7.192;2024-01-15T01:39:01;22.48;;;9.75;;
35959;SDS011;22043;50.970;7.192;2024-01-15T01:41:26;22.42;;;9.65;;
35959;SDS011;22043;50.970;7.192;2024-01-15T01:43:51;25.98;;;10.15;;
35959;SDS011;22043;50.970;7.192;2024-01-15T01:46:17;25.23;;;10.38;;
35959;SDS011;22043;50.970;7.192;2024-01-15T01:48:42;27.17;;;9.52;;
35959;SDS011;22043;50.970;7.192;2024-01-15T01:51:08;26.23;;;9.90;;
35959;SDS011;22043;50.970;7.192;2024-01-15T01:53:34;25.83;;;10.30;;
35959;SDS011;22043;50.970;7.192;2024-01-15T01:56:02;27.95;;;10.75;;
35959;SDS011;22043;50.970;7.192;2024-01-15T01:58:28;25.13;;;10.00;;
35959;SDS011;22043;50.970;7.192;2024-01-15T02:00:54;25.42;;;9.57;;
35959;SDS011;22043;50.970;7.192;2024-01-15T02:03:20;25.88;;;10.32;;
35959;SDS011;22043;50.970;7.192;2024-01-15T02:05:45;21.67;;;8.93;;
35959;SDS011;22043;50.970;7.192;2024-01-15T02:08:13;23.83;;;9.45;;
35959;SDS011;22043;50.970;7.192;2024-01-15T02:10:39;22.38;;;8.68;;
35959;SDS011;22043;50.970;7.192;2024-01-15T02:13:04;22.27;;;9.05;;
35959;SDS011;22043;50.970;7.192;2024-01-15T02:15:30;21.10;;;8.93;;
35959;SDS011;22043;50.970;7.192;2024-01-15T02:18:05;21.25;;;8.85;;
35959;SDS011;22043;50.970;7.192;2024-01-15T02:20:32;22.95;;;9.90;;
35959;SDS011;22043;50.970;7.192;2024-01-15T02:23:11;22.73;;;9.57;;
35959;SDS011;22043;50.970;7.192;2024-01-15T02:25:38;25.30;;;9.10;;
35959;SDS011;22043;50.970;7.192;2024-01-15T02:28:05;23.45;;;9.15;;
35959;SDS011;22043;50.970;7.192;2024-01-15T02:30:31;24.70;;;9.48;;
35959;SDS011;22043;50.970;7.192;2024-01-15T02:32:57;24.42;;;8.77;;
35959;SDS011;22043;50.970;7.192;2024-01-15T02:35:23;21.70;;;8.68;;
35959;SDS011;22043;50.970;7.192;2024-01-15T02:37:48;22.30;;;9.18;;
35959;SDS011;22043;50.970;7.192;2024-01-15T02:40:16;22.50;;;9.02;;
35959;SDS011;22043;50.970;7.192;2024-01-15T02:42:41;20.95;;;8.35;;
35959;SDS011;22043;50.970;7.192;2024-01-15T02:45:07;24.08;;;9.10;;
35959;SDS011;22043;50.970;7.192;2024-01-15T02:47:32;20.02;;;8.13;;
35959;SDS011;22043;50.970;7.192;2024-01-15T02:49:57;20.05;;;8.93;;
35959;SDS011;22043;50.970;7.192;2024-01-15T02:52:23;23.80;;;9.35;;
35959;SDS011;22043;50.970;7.192;2024-01-15T02:54:48;22.92;;;9.20;;
35959;SDS011;22043;50.970;7.192;2024-01-15T02:57:14;24.35;;;10.20;;
35959;SDS011;22043;50.970;7.192;2024-01-15T02:59:39;21.70;;;9.07;;
35959;SDS011;22043;50.970;7.192;2024-01-15T03:02:04;26.67;;;9.30;;
35959;SDS011;22043;50.970;7.192;2024-01-15T03:04:30;25.27;;;9.52;;
35959;SDS011;22043;50.970;7.192;2024-01-15T03:06:55;23.13;;;8.80;;
35959;SDS011;22043;50.970;7.192;2024-01-15T03:09:21;21.50;;;9.02;;
35959;SDS011;22043;50.970;7.192;2024-01-15T03:11:46;20.38;;;8.13;;
35959;SDS011;22043;50.970;7.192;2024-01-15T03:14:12;25.08;;;9.50;;
35959;SDS011;22043;50.970;7.192;2024-01-15T03:16:37;19.27;;;8.52;;
35959;SDS011;22043;50.970;7.192;2024-01-15T03:19:02;24.27;;;8.60;;
35959;SDS011;22043;50.970;7.192;2024-01-15T03:21:28;18.42;;;7.30;;
35959;SDS011;22043;50.970;7.192;2024-01-15T03:23:54;23.77;;;9.35;;
35959;SDS011;22043;50.970;7.192;2024-01-15T03:26:20;20.70;;;8.68;;
35959;SDS011;22043;50.970;7.192;2024-01-15T03:28:45;28.60;;;10.45;;
35959;SDS011;22043;50.970;7.192;2024-01-15T03:31:11;19.23;;;7.70;;
35959;SDS011;22043;50.970;7.192;2024-01-15T03:33:36;20.83;;;8.38;;
35959;SDS011;22043;50.970;7.192;2024-01-15T03:36:02;17.73;;;7.72;;
35959;SDS011;22043;50.970;7.192;2024-01-15T03:38:28;25.52;;;8.90;;
35959;SDS011;22043;50.970;7.192;2024-01-15T03:40:54;25.00;;;9.55;;
35959;SDS011;22043;50.970;7.192;2024-01-15T03:43:19;22.27;;;7.95;;
35959;SDS011;22043;50.970;7.192;2024-01-15T03:45:45;23.65;;;8.15;;
35959;SDS011;22043;50.970;7.192;2024-01-15T03:48:11;17.20;;;7.68;;
35959;SDS011;22043;50.970;7.192;2024-01-15T03:50:36;23.35;;;8.82;;
35959;SDS011;22043;50.970;7.192;2024-01-15T03:53:02;21.08;;;8.13;;
35959;SDS011;22043;50.970;7.192;2024-01-15T03:55:27;20.98;;;8.77;;
35959;SDS011;22043;50.970;7.192;2024-01-15T03:57:53;21.33;;;7.88;;
35959;SDS011;22043;50.970;7.192;2024-01-15T04:00:18;18.48;;;7.45;;
35959;SDS011;22043;50.970;7.192;2024-01-15T04:02:44;19.50;;;7.75;;
35959;SDS011;22043;50.970;7.192;2024-01-15T04:05:09;18.48;;;8.40;;
35959;SDS011;22043;50.970;7.192;2024-01-15T04:07:35;22.27;;;9.23;;
35959;SDS011;22043;50.970;7.192;2024-01-15T04:10:00;19.10;;;8.60;;
35959;SDS011;22043;50.970;7.192;2024-01-15T04:12:26;17.90;;;9.40;;
35959;SDS011;22043;50.970;7.192;2024-01-15T04:14:51;19.58;;;8.90;;
35959;SDS011;22043;50.970;7.192;2024-01-15T04:17:17;21.35;;;8.65;;
35959;SDS011;22043;50.970;7.192;2024-01-15T04:19:45;19.73;;;7.95;;
35959;SDS011;22043;50.970;7.192;2024-01-15T04:22:13;19.88;;;8.80;;
35959;SDS011;22043;50.970;7.192;2024-01-15T04:24:38;22.45;;;8.75;;
35959;SDS011;22043;50.970;7.192;2024-01-15T04:27:04;20.27;;;8.18;;
35959;SDS011;22043;50.970;7.192;2024-01-15T04:29:29;16.83;;;7.25;;
35959;SDS011;22043;50.970;7.192;2024-01-15T04:31:55;20.02;;;9.23;;
35959;SDS011;22043;50.970;7.192;2024-01-15T04:34:20;22.55;;;9.55;;
35959;SDS011;22043;50.970;7.192;2024-01-15T04:36:46;19.27;;;8.75;;
35959;SDS011;22043;50.970;7.192;2024-01-15T04:39:11;20.90;;;7.95;;
35959;SDS011;22043;50.970;7.192;2024-01-15T04:41:36;25.65;;;8.70;;
35959;SDS011;22043;50.970;7.192;2024-01-15T04:44:02;20.35;;;8.70;;
35959;SDS011;22043;50.970;7.192;2024-01-15T04:46:28;24.05;;;9.52;;
35959;SDS011;22043;50.970;7.192;2024-01-15T04:48:53;21.08;;;9.55;;
35959;SDS011;22043;50.970;7.192;2024-01-15T04:51:19;22.02;;;9.23;;
35959;SDS011;22043;50.970;7.192;2024-01-15T04:53:44;20.73;;;8.60;;
35959;SDS011;22043;50.970;7.192;2024-01-15T04:56:09;22.35;;;8.48;;
35959;SDS011;22043;50.970;7.192;2024-01-15T04:58:35;23.20;;;9.52;;
35959;SDS011;22043;50.970;7.192;2024-01-15T05:01:00;21.88;;;8.15;;
35959;SDS011;22043;50.970;7.192;2024-01-15T05:03:26;20.80;;;9.13;;
35959;SDS011;22043;50.970;7.192;2024-01-15T05:05:51;19.23;;;8.90;;
35959;SDS011;22043;50.970;7.192;2024-01-15T05:08:17;19.02;;;7.85;;
35959;SDS011;22043;50.970;7.192;2024-01-15T05:10:42;20.45;;;7.85;;
35959;SDS011;22043;50.970;7.192;2024-01-15T05:13:07;22.80;;;8.57;;
35959;SDS011;22043;50.970;7.192;2024-01-15T05:15:33;20.13;;;7.90;;
35959;SDS011;22043;50.970;7.192;2024-01-15T05:17:58;18.50;;;6.70;;
35959;SDS011;22043;50.970;7.192;2024-01-15T05:20:24;20.00;;;7.63;;
35959;SDS011;22043;50.970;7.192;2024-01-15T05:22:49;18.10;;;8.05;;
35959;SDS011;22043;50.970;7.192;2024-01-15T05:25:15;22.27;;;7.72;;
35959;SDS011;22043;50.970;7.192;2024-01-15T05:27:40;19.15;;;7.32;;
35959;SDS011;22043;50.970;7.192;2024-01-15T05:30:05;20.33;;;7.40;;
35959;SDS011;22043;50.970;7.192;2024-01-15T05:32:31;19.88;;;8.00;;
35959;SDS011;22043;50.970;7.192;2024-01-15T05:34:57;18.27;;;7.63;;
35959;SDS011;22043;50.970;7.192;2024-01-15T05:37:22;18.83;;;7.45;;
35959;SDS011;22043;50.970;7.192;2024-01-15T05:39:48;14.40;;;6.97;;
35959;SDS011;22043;50.970;7.192;2024-01-15T05:42:13;14.52;;;7.15;;
35959;SDS011;22043;50.970;7.192;2024-01-15T05:44:38;20.13;;;8.15;;
35959;SDS011;22043;50.970;7.192;2024-01-15T05:47:04;18.80;;;7.10;;
35959;SDS011;22043;50.970;7.192;2024-01-15T05:49:29;20.30;;;7.85;;
35959;SDS011;22043;50.970;7.192;2024-01-15T05:51:55;15.10;;;6.75;;
35959;SDS011;22043;50.970;7.192;2024-01-15T05:54:20;19.38;;;7.47;;
35959;SDS011;22043;50.970;7.192;2024-01-15T05:56:46;17.27;;;7.53;;
35959;SDS011;22043;50.970;7.192;2024-01-15T05:59:11;16.63;;;6.90;;
35959;SDS011;22043;50.970;7.192;2024-01-15T06:01:37;15.82;;;6.20;;
35959;SDS011;22043;50.970;7.192;2024-01-15T06:04:02;16.92;;;7.03;;
35959;SDS011;22043;50.970;7.192;2024-01-15T06:06:27;15.52;;;6.03;;
35959;SDS011;22043;50.970;7.192;2024-01-15T06:08:53;18.90;;;7.15;;
35959;SDS011;22043;50.970;7.192;2024-01-15T06:11:18;15.50;;;5.90;;
35959;SDS011;22043;50.970;7.192;2024-01-15T06:13:44;19.25;;;7.03;;
35959;SDS011;22043;50.970;7.192;2024-01-15T06:16:15;17.40;;;6.50;;
35959;SDS011;22043;50.970;7.192;2024-01-15T06:18:45;13.18;;;6.47;;
35959;SDS011;22043;50.970;7.192;2024-01-15T06:21:10;16.75;;;6.28;;
35959;SDS011;22043;50.970;7.192;2024-01-15T06:23:38;13.40;;;5.47;;
35959;SDS011;22043;50.970;7.192;2024-01-15T06:26:03;13.05;;;5.70;;
35959;SDS011;22043;50.970;7.192;2024-01-15T06:28:29;13.73;;;5.65;;
35959;SDS011;22043;50.970;7.192;2024-01-15T06:30:55;17.95;;;6.30;;
35959;SDS011;22043;50.970;7.192;2024-01-15T06:33:20;13.65;;;6.53;;
35959;SDS011;22043;50.970;7.192;2024-01-15T06:35:45;16.83;;;5.60;;
35959;SDS011;22043;50.970;7.192;2024-01-15T06:38:11;13.63;;;6.63;;
35959;SDS011;22043;50.970;7.192;2024-01-15T06:40:36;15.20;;;5.78;;
35959;SDS011;22043;50.970;7.192;2024-01-15T06:43:02;14.02;;;6.60;;
35959;SDS011;22043;50.970;7.192;2024-01-15T06:45:27;12.82;;;6.10;;
35959;SDS011;22043;50.970;7.192;2024-01-15T06:47:53;18.05;;;6.78;;
35959;SDS011;22043;50.970;7.192;2024-01-15T06:50:18;17.67;;;6.93;;
35959;SDS011;22043;50.970;7.192;2024-01-15T06:52:44;13.50;;;6.00;;
35959;SDS011;22043;50.970;7.192;2024-01-15T06:55:09;15.38;;;6.28;;
35959;SDS011;22043;50.970;7.192;2024-01-15T06:57:34;12.23;;;6.03;;
35959;SDS011;22043;50.970;7.192;2024-01-15T07:00:00;16.83;;;7.82;;
35959;SDS011;22043;50.970;7.192;2024-01-15T07:02:26;14.00;;;6.63;;
35959;SDS011;22043;50.970;7.192;2024-01-15T07:04:51;13.35;;;5.53;;
35959;SDS011;22043;50.970;7.192;2024-01-15T07:07:17;12.85;;;6.28;;
35959;SDS011;22043;50.970;7.192;2024-01-15T07:09:42;16.85;;;6.60;;
35959;SDS011;22043;50.970;7.192;2024-01-15T07:12:08;14.70;;;6.07;;
35959;SDS011;22043;50.970;7.192;2024-01-15T07:14:33;15.95;;;6.10;;
35959;SDS011;22043;50.970;7.192;2024-01-15T07:16:58;14.90;;;6.60;;
35959;SDS011;22043;50.970;7.192;2024-01-15T07:19:24;16.88;;;6.57;;
35959;SDS011;22043;50.970;7.192;2024-01-15T07:21:50;16.85;;;7.15;;
35959;SDS011;22043;50.970;7.192;2024-01-15T07:24:15;13.32;;;6.20;;
35959;SDS011;22043;50.970;7.192;2024-01-15T07:26:43;14.65;;;7.00;;
35959;SDS011;22043;50.970;7.192;2024-01-15T07:29:09;13.75;;;6.22;;
35959;SDS011;22043;50.970;7.192;2024-01-15T07:31:35;15.88;;;6.32;;
35959;SDS011;22043;50.970;7.192;2024-01-15T07:34:00;14.18;;;6.40;;
35959;SDS011;22043;50.970;7.192;2024-01-15T07:36:25;15.05;;;7.20;;
35959;SDS011;22043;50.970;7.192;2024-01-15T07:38:51;16.13;;;6.90;;
35959;SDS011;22043;50.970;7.192;2024-01-15T07:41:16;13.77;;;6.68;;
35959;SDS011;22043;50.970;7.192;2024-01-15T07:43:42;12.25;;;6.15;;
35959;SDS011;22043;50.970;7.192;2024-01-15T07:46:07;14.63;;;6.45;;
35959;SDS011;22043;50.970;7.192;2024-01-15T07:48:33;13.00;;;6.00;;
35959;SDS011;22043;50.970;7.192;2024-01-15T07:50:59;13.60;;;6.25;;
35959;SDS011;22043;50.970;7.192;2024-01-15T07:53:24;17.05;;;7.90;;
35959;SDS011;22043;50.970;7.192;2024-01-15T07:55:50;13.60;;;6.82;;
35959;SDS011;22043;50.970;7.192;2024-01-15T07:58:15;17.02;;;7.35;;
35959;SDS011;22043;50.970;7.192;2024-01-15T08:00:41;12.98;;;6.50;;
35959;SDS011;22043;50.970;7.192;2024-01-15T08:03:06;15.32;;;6.32;;
35959;SDS011;22043;50.970;7.192;2024-01-15T08:05:32;21.02;;;7.57;;
35959;SDS011;22043;50.970;7.192;2024-01-15T08:07:57;15.07;;;6.47;;
35959;SDS011;22043;50.970;7.192;2024-01-15T08:10:23;12.68;;;6.15;;
35959;SDS011;22043;50.970;7.192;2024-01-15T08:12:48;14.68;;;6.00;;
35959;SDS011;22043;50.970;7.192;2024-01-15T08:15:14;15.27;;;6.55;;
35959;SDS011;22043;50.970;7.192;2024-01-15T08:17:39;15.10;;;7.00;;
35959;SDS011;22043;50.970;7.192;2024-01-15T08:20:05;14.38;;;6.88;;
35959;SDS011;22043;50.970;7.192;2024-01-15T08:22:31;16.33;;;6.35;;
35959;SDS011;22043;50.970;7.192;2024-01-15T08:24:56;16.02;;;6.50;;
35959;SDS011;22043;50.970;7.192;2024-01-15T08:27:22;16.08;;;7.10;;
35959;SDS011;22043;50.970;7.192;2024-01-15T08:29:47;14.30;;;6.05;;
35959;SDS011;22043;50.970;7.192;2024-01-15T08:32:13;18.63;;;8.02;;
35959;SDS011;22043;50.970;7.192;2024-01-15T08:34:40;18.50;;;7.22;;
35959;SDS011;22043;50.970;7.192;2024-01-15T08:37:06;23.15;;;8.30;;
35959;SDS011;22043;50.970;7.192;2024-01-15T08:39:32;21.08;;;8.43;;
35959;SDS011;22043;50.970;7.192;2024-01-15T08:41:57;18.58;;;7.25;;
35959;SDS011;22043;50.970;7.192;2024-01-15T08:44:22;26.35;;;8.32;;
35959;SDS011;22043;50.970;7.192;2024-01-15T08:46:48;18.00;;;7.63;;
35959;SDS011;22043;50.970;7.192;2024-01-15T08:49:13;21.85;;;9.18;;
35959;SDS011;22043;50.970;7.192;2024-01-15T08:51:39;16.70;;;7.90;;
35959;SDS011;22043;50.970;7.192;2024-01-15T08:54:04;16.40;;;8.10;;
35959;SDS011;22043;50.970;7.192;2024-01-15T08:56:30;24.73;;;8.52;;
35959;SDS011;22043;50.970;7.192;2024-01-15T08:58:55;18.90;;;8.73;;
35959;SDS011;22043;50.970;7.192;2024-01-15T09:01:21;14.98;;;7.43;;
35959;SDS011;22043;50.970;7.192;2024-01-15T09:03:46;20.73;;;7.32;;
35959;SDS011;22043;50.970;7.192;2024-01-15T09:06:13;17.67;;;7.00;;
35959;SDS011;22043;50.970;7.192;2024-01-15T09:08:39;15.55;;;6.55;;
35959;SDS011;22043;50.970;7.192;2024-01-15T09:11:04;14.75;;;6.07;;
35959;SDS011;22043;50.970;7.192;2024-01-15T09:13:31;13.98;;;6.78;;
35959;SDS011;22043;50.970;7.192;2024-01-15T09:15:56;16.13;;;7.63;;
35959;SDS011;22043;50.970;7.192;2024-01-15T09:18:23;16.25;;;7.32;;
35959;SDS011;22043;50.970;7.192;2024-01-15T09:20:48;17.25;;;8.85;;
35959;SDS011;22043;50.970;7.192;2024-01-15T09:23:14;15.52;;;7.03;;
35959;SDS011;22043;50.970;7.192;2024-01-15T09:25:39;20.05;;;7.45;;
35959;SDS011;22043;50.970;7.192;2024-01-15T09:28:05;18.88;;;7.40;;
35959;SDS011;22043;50.970;7.192;2024-01-15T09:30:30;21.90;;;7.22;;
35959;SDS011;22043;50.970;7.192;2024-01-15T09:32:56;20.15;;;8.82;;
35959;SDS011;22043;50.970;7.192;2024-01-15T09:35:22;17.38;;;7.45;;
35959;SDS011;22043;50.970;7.192;2024-01-15T09:37:47;16.23;;;8.15;;
35959;SDS011;22043;50.970;7.192;2024-01-15T09:40:13;15.38;;;7.50;;
35959;SDS011;22043;50.970;7.192;2024-01-15T09:42:40;18.42;;;7.47;;
35959;SDS011;22043;50.970;7.192;2024-01-15T09:45:06;16.70;;;7.47;;
35959;SDS011;22043;50.970;7.192;2024-01-15T09:47:32;16.05;;;7.50;;
35959;SDS011;22043;50.970;7.192;2024-01-15T09:49:57;18.02;;;7.50;;
35959;SDS011;22043;50.970;7.192;2024-01-15T09:52:23;12.13;;;6.18;;
35959;SDS011;22043;50.970;7.192;2024-01-15T09:54:50;12.32;;;6.85;;
35959;SDS011;22043;50.970;7.192;2024-01-15T09:57:15;13.05;;;6.60;;
35959;SDS011;22043;50.970;7.192;2024-01-15T09:59:41;18.95;;;6.90;;
35959;SDS011;22043;50.970;7.192;2024-01-15T10:02:08;14.65;;;6.88;;
35959;SDS011;22043;50.970;7.192;2024-01-15T10:04:33;13.35;;;6.43;;
35959;SDS011;22043;50.970;7.192;2024-01-15T10:06:59;11.48;;;5.78;;
35959;SDS011;22043;50.970;7.192;2024-01-15T10:09:25;11.30;;;5.65;;
35959;SDS011;22043;50.970;7.192;2024-01-15T10:11:51;9.10;;;5.30;;
35959;SDS011;22043;50.970;7.192;2024-01-15T10:14:16;11.15;;;5.53;;
35959;SDS011;22043;50.970;7.192;2024-01-15T10:16:42;8.13;;;4.88;;
35959;SDS011;22043;50.970;7.192;2024-01-15T10:19:08;9.60;;;4.50;;
35959;SDS011;22043;50.970;7.192;2024-01-15T10:21:34;7.72;;;4.03;;
35959;SDS011;22043;50.970;7.192;2024-01-15T10:24:00;7.18;;;4.20;;
35959;SDS011;22043;50.970;7.192;2024-01-15T10:26:27;9.20;;;4.43;;
35959;SDS011;22043;50.970;7.192;2024-01-15T10:28:53;8.75;;;4.63;;
35959;SDS011;22043;50.970;7.192;2024-01-15T10:31:18;8.88;;;3.97;;
35959;SDS011;22043;50.970;7.192;2024-01-15T10:33:48;7.45;;;4.38;;
35959;SDS011;22043;50.970;7.192;2024-01-15T10:36:14;7.57;;;3.38;;
35959;SDS011;22043;50.970;7.192;2024-01-15T10:38:41;9.75;;;4.30;;
35959;SDS011;22043;50.970;7.192;2024-01-15T10:41:07;7.25;;;3.50;;
35959;SDS011;22043;50.970;7.192;2024-01-15T10:43:32;7.13;;;3.97;;
35959;SDS011;22043;50.970;7.192;2024-01-15T10:45:59;6.75;;;4.05;;
35959;SDS011;22043;50.970;7.192;2024-01-15T10:48:24;7.05;;;3.83;;
35959;SDS011;22043;50.970;7.192;2024-01-15T10:50:51;8.07;;;3.70;;
35959;SDS011;22043;50.970;7.192;2024-01-15T10:53:17;8.75;;;3.53;;
35959;SDS011;22043;50.970;7.192;2024-01-15T10:55:43;6.78;;;4.25;;
35959;SDS011;22043;50.970;7.192;2024-01-15T10:58:09;7.15;;;3.58;;
35959;SDS011;22043;50.970;7.192;2024-01-15T11:00:35;6.20;;;3.75;;
35959;SDS011;22043;50.970;7.192;2024-01-15T11:03:02;8.52;;;3.88;;
35959;SDS011;22043;50.970;7.192;2024-01-15T11:05:29;7.13;;;2.83;;
35959;SDS011;22043;50.970;7.192;2024-01-15T11:07:58;5.32;;;3.15;;
35959;SDS011;22043;50.970;7.192;2024-01-15T11:10:37;4.93;;;2.85;;
35959;SDS011;22043;50.970;7.192;2024-01-15T11:15:59;5.63;;;3.08;;
35959;SDS011;22043;50.970;7.192;2024-01-15T11:18:27;5.32;;;3.03;;
35959;SDS011;22043;50.970;7.192;2024-01-15T11:21:26;7.13;;;3.60;;
35959;SDS011;22043;50.970;7.192;2024-01-15T11:23:49;4.97;;;2.58;;
35959;SDS011;22043;50.970;7.192;2024-01-15T11:26:35;5.50;;;2.45;;
35959;SDS011;22043;50.970;7.192;2024-01-15T11:29:05;5.80;;;2.20;;
35959;SDS011;22043;50.970;7.192;2024-01-15T11:34:20;6.57;;;2.47;;
35959;SDS011;22043;50.970;7.192;2024-01-15T11:42:01;6.13;;;2.22;;
35959;SDS011;22043;50.970;7.192;2024-01-15T11:44:30;4.38;;;2.50;;
35959;SDS011;22043;50.970;7.192;2024-01-15T11:46:59;5.10;;;2.63;;
35959;SDS011;22043;50.970;7.192;2024-01-15T11:52:30;4.43;;;1.85;;
35959;SDS011;22043;50.970;7.192;2024-01-15T11:55:01;4.55;;;2.10;;
35959;SDS011;22043;50.970;7.192;2024-01-15T12:00:03;4.07;;;1.90;;
35959;SDS011;22043;50.970;7.192;2024-01-15T12:02:41;3.42;;;2.20;;
35959;SDS011;22043;50.970;7.192;2024-01-15T12:05:11;5.78;;;2.17;;
35959;SDS011;22043;50.970;7.192;2024-01-15T12:07:47;4.82;;;1.75;;
35959;SDS011;22043;50.970;7.192;2024-01-15T12:10:15;3.58;;;1.77;;
35959;SDS011;22043;50.970;7.192;2024-01-15T12:15:20;4.05;;;2.17;;
35959;SDS011;22043;50.970;7.192;2024-01-15T12:17:46;6.75;;;2.30;;
35959;SDS011;22043;50.970;7.192;2024-01-15T12:20:14;4.45;;;2.38;;
35959;SDS011;22043;50.970;7.192;2024-01-15T12:22:40;6.22;;;2.42;;
35959;SDS011;22043;50.970;7.192;2024-01-15T12:25:06;5.20;;;2.88;;
35959;SDS011;22043;50.970;7.192;2024-01-15T12:27:32;7.80;;;3.20;;
35959;SDS011;22043;50.970;7.192;2024-01-15T12:30:00;5.80;;;2.63;;
35959;SDS011;22043;50.970;7.192;2024-01-15T12:32:26;5.72;;;2.60;;
35959;SDS011;22043;50.970;7.192;2024-01-15T12:34:51;4.70;;;2.83;;
35959;SDS011;22043;50.970;7.192;2024-01-15T12:37:20;7.72;;;3.00;;
35959;SDS011;22043;50.970;7.192;2024-01-15T12:39:46;6.93;;;3.25;;
35959;SDS011;22043;50.970;7.192;2024-01-15T12:42:13;5.20;;;3.10;;
35959;SDS011;22043;50.970;7.192;2024-01-15T12:44:39;6.80;;;3.33;;
35959;SDS011;22043;50.970;7.192;2024-01-15T12:47:05;6.05;;;2.85;;
35959;SDS011;22043;50.970;7.192;2024-01-15T12:49:30;5.13;;;3.53;;
35959;SDS011;22043;50.970;7.192;2024-01-15T12:51:56;6.80;;;3.97;;
35959;SDS011;22043;50.970;7.192;2024-01-15T12:54:23;5.28;;;3.10;;
35959;SDS011;22043;50.970;7.192;2024-01-15T12:56:49;11.13;;;4.15;;
35959;SDS011;22043;50.970;7.192;2024-01-15T12:59:15;9.95;;;3.72;;
35959;SDS011;22043;50.970;7.192;2024-01-15T13:01:41;7.88;;;4.45;;
35959;SDS011;22043;50.970;7.192;2024-01-15T13:04:07;9.77;;;3.75;;
35959;SDS011;22043;50.970;7.192;2024-01-15T13:06:36;9.15;;;3.47;;
35959;SDS011;22043;50.970;7.192;2024-01-15T13:09:05;8.57;;;3.50;;
35959;SDS011;22043;50.970;7.192;2024-01-15T13:11:33;7.47;;;4.10;;
35959;SDS011;22043;50.970;7.192;2024-01-15T13:16:24;7.43;;;3.55;;
35959;SDS011;22043;50.970;7.192;2024-01-15T13:18:52;6.20;;;2.65;;
35959;SDS011;22043;50.970;7.192;2024-01-15T13:21:17;10.50;;;3.22;;
35959;SDS011;22043;50.970;7.192;2024-01-15T13:23:43;8.75;;;2.80;;
35959;SDS011;22043;50.970;7.192;2024-01-15T13:26:08;11.52;;;3.38;;
35959;SDS011;22043;50.970;7.192;2024-01-15T13:28:33;8.10;;;2.92;;
35959;SDS011;22043;50.970;7.192;2024-01-15T13:30:59;9.32;;;3.08;;
35959;SDS011;22043;50.970;7.192;2024-01-15T13:33:25;6.22;;;2.72;;
35959;SDS011;22043;50.970;7.192;2024-01-15T13:35:51;6.22;;;2.97;;
35959;SDS011;22043;50.970;7.192;2024-01-15T13:38:16;10.20;;;2.70;;
35959;SDS011;22043;50.970;7.192;2024-01-15T13:40:41;4.57;;;2.58;;
35959;SDS011;22043;50.970;7.192;2024-01-15T13:43:07;5.53;;;2.30;;
35959;SDS011;22043;50.970;7.192;2024-01-15T13:45:33;4.82;;;2.47;;
35959;SDS011;22043;50.970;7.192;2024-01-15T13:48:00;5.63;;;2.38;;
35959;SDS011;22043;50.970;7.192;2024-01-15T13:50:26;4.82;;;2.40;;
35959;SDS011;22043;50.970;7.192;2024-01-15T13:52:52;5.47;;;2.33;;
35959;SDS011;22043;50.970;7.192;2024-01-15T13:55:18;6.72;;;2.38;;
35959;SDS011;22043;50.970;7.192;2024-01-15T13:57:43;6.30;;;2.00;;
35959;SDS011;22043;50.970;7.192;2024-01-15T14:00:09;6.43;;;2.08;;
35959;SDS011;22043;50.970;7.192;2024-01-15T14:02:36;7.65;;;2.17;;
35959;SDS011;22043;50.970;7.192;2024-01-15T14:05:02;4.50;;;2.17;;
35959;SDS011;22043;50.970;7.192;2024-01-15T14:07:28;4.00;;;2.00;;
35959;SDS011;22043;50.970;7.192;2024-01-15T14:09:53;3.33;;;2.00;;
35959;SDS011;22043;50.970;7.192;2024-01-15T14:12:19;6.43;;;2.22;;
35959;SDS011;22043;50.970;7.192;2024-01-15T14:14:44;5.13;;;1.90;;
35959;SDS011;22043;50.970;7.192;2024-01-15T14:17:09;6.05;;;2.00;;
35959;SDS011;22043;50.970;7.192;2024-01-15T14:19:35;4.90;;;1.98;;
35959;SDS011;22043;50.970;7.192;2024-01-15T14:22:00;3.85;;;2.00;;
35959;SDS011;22043;50.970;7.192;2024-01-15T14:24:26;5.90;;;2.03;;
35959;SDS011;22043;50.970;7.192;2024-01-15T14:26:51;5.40;;;2.00;;
35959;SDS011;22043;50.970;7.192;2024-01-15T14:29:17;3.30;;;1.83;;
35959;SDS011;22043;50.970;7.192;2024-01-15T14:31:45;4.75;;;3.03;;
35959;SDS011;22043;50.970;7.192;2024-01-15T14:34:11;5.63;;;2.28;;
35959;SDS011;22043;50.970;7.192;2024-01-15T14:36:37;8.02;;;5.30;;
35959;SDS011;22043;50.970;7.192;2024-01-15T14:39:02;8.32;;;6.32;;
35959;SDS011;22043;50.970;7.192;2024-01-15T14:41:28;4.72;;;2.15;;
35959;SDS011;22043;50.970;7.192;2024-01-15T14:43:53;6.15;;;3.08;;
35959;SDS011;22043;50.970;7.192;2024-01-15T14:46:18;5.28;;;3.92;;
35959;SDS011;22043;50.970;7.192;2024-01-15T14:48:44;5.63;;;2.70;;
35959;SDS011;22043;50.970;7.192;2024-01-15T14:51:10;4.93;;;2.72;;
35959;SDS011;22043;50.970;7.192;2024-01-15T14:53:35;5.68;;;2.30;;